ADDS METAR Data INFO
IDs: Format: Raw Decoded Include TAF

Data at: 0621 UTC 15 Dec 2017

PAJZ 150620Z AUTO 11004KT 2 1/2SM BR BKN003 OVC036 M01/M01 A2960 RMK AO2 FZRANO $
PAJZ 150611Z AUTO 09005KT 3SM BR BKN003 OVC036 M01/M01 A2959 RMK AO2 FZRANO $
PAJZ 150606Z AUTO 09005KT 1 1/4SM BR SCT001 OVC036 M01/M01 A2959 RMK AO2 FZRANO $
PAJZ 150556Z AUTO 10006KT 3/4SM BR FEW001 OVC036 M01/M01 A2960 RMK AO2 SLP029 60000 T10061006 10000 21006 58009 FZRANO $
PAJZ 150541Z AUTO 11007KT 1 3/4SM BR FEW001 OVC036 00/M01 A2960 RMK AO2 FZRANO $
PAJZ 150527Z AUTO 11007KT 5SM BR SCT024 OVC036 00/M01 A2961 RMK AO2 FZRANO $
PAJZ 150456Z AUTO 12007KT 8SM OVC017 00/00 A2962 RMK AO2 SLP036 T00000000 FZRANO $
PAJZ 150356Z AUTO 13006KT 8SM OVC015 00/00 A2962 RMK AO2 SLP038 T00000000 FZRANO $
PAJZ 150256Z AUTO 13005KT 8SM OVC017 00/00 A2962 RMK AO2 UPE00 SLP038 P0000 60000 T00000000 53001 FZRANO $
PAJZ 150156Z AUTO 11005KT 6SM UP BR BKN017 OVC026 00/00 A2962 RMK AO2 UPB34 SLP036 P0000 T00000000 FZRANO $
PAJZ 150056Z AUTO 00000KT 6SM BR OVC017 00/00 A2962 RMK AO2 SLP037 T00000000 FZRANO $
PAJZ 142356Z AUTO 12003KT 7SM OVC017 01/00 A2962 RMK AO2 SLP037 T00060000 10006 21006 52001 FZRANO $
PAJZ 142256Z AUTO 12004KT 6SM BR OVC017 00/00 A2962 RMK AO2 SLP038 T00000000 FZRANO $
PAJZ 142156Z AUTO 06004KT 6SM BR FEW002 OVC017 00/00 A2962 RMK AO2 SLP036 T00000000 FZRANO $
PAJZ 142147Z AUTO 06004KT 2SM BR FEW002 OVC017 00/00 A2962 RMK AO2 FZRANO $
PAJZ 142143Z AUTO 05004KT 1SM BR FEW002 OVC015 00/00 A2962 RMK AO2 FZRANO $
PAJZ 142135Z AUTO 06004KT 1/2SM FG FEW002 OVC015 00/00 A2962 RMK AO2 FZRANO $
PAJZ 142130Z AUTO 06003KT 1SM BR FEW002 OVC015 00/00 A2962 RMK AO2 FZRANO $
PAJZ 142122Z AUTO 00000KT 1 3/4SM BR OVC015 00/00 A2962 RMK AO2 VIS 1V5 FZRANO $
PAJZ 142105Z AUTO 00000KT 3SM BR OVC015 00/00 A2962 RMK AO2 FZRANO $
PAJZ 142056Z AUTO 00000KT 2 1/2SM BR OVC015 00/M01 A2962 RMK AO2 SLP038 T00001006 53003 FZRANO $
PAJZ 142049Z AUTO 00000KT 1 1/4SM BR OVC015 00/M01 A2963 RMK AO2 FZRANO $
PAJZ 142042Z AUTO 00000KT 3/4SM BR OVC013 M01/M01 A2962 RMK AO2 FZRANO $
PAJZ 142032Z AUTO 00000KT 1SM BR OVC013 M01/M01 A2962 RMK AO2 FZRANO $
PAJZ 142025Z AUTO 00000KT 1/2SM FZFG OVC013 M01/M01 A2962 RMK AO2 FZRANO $
PAJZ 142016Z AUTO 00000KT 1/4SM FZFG OVC013 M01/M01 A2962 RMK AO2 FZRANO $
PAJZ 141956Z AUTO 00000KT 3/4SM BR OVC017 M01/M01 A2962 RMK AO2 SLP036 T10061011 FZRANO $
PAJZ 141950Z AUTO 00000KT 1SM BR OVC019 M01/M01 A2962 RMK AO2 FZRANO $
PAJZ 141939Z AUTO 00000KT 1/2SM FZFG FEW001 OVC021 M01/M01 A2962 RMK AO2 FZRANO $
PAJZ 141934Z AUTO 00000KT 1SM BR FEW001 OVC021 M01/M01 A2961 RMK AO2 VIS 1/2V3 FZRANO $
PAJZ 141925Z AUTO 00000KT 2SM BR FEW001 OVC021 M01/M01 A2962 RMK AO2 VIS 1 1/2V4 FZRANO $
PAJZ 141921Z AUTO 00000KT 1SM BR SCT001 OVC021 M01/M01 A2962 RMK AO2 FZRANO $
PAJZ 141911Z AUTO 00000KT 1/2SM FZFG SCT001 OVC021 M01/M01 A2962 RMK AO2 FZRANO $
PAJZ 141908Z AUTO 00000KT 1SM BR FEW001 OVC021 M01/M01 A2962 RMK AO2 FZRANO $
PAJZ 141856Z AUTO 00000KT 8SM OVC021 M01/M01 A2962 RMK AO2 SLP035 T10061006 FZRANO $
PAJZ 141756Z AUTO 13003KT 8SM OVC025 01/01 A2962 RMK AO2 SLP036 60000 T00060006 10006 21006 57009 FZRANO $
PAJZ 141656Z AUTO 00000KT 8SM BKN022 OVC028 00/00 A2962 RMK AO2 UPE40 SLP039 P0000 T00000000 FZRANO $
PAJZ 141556Z AUTO 00000KT 4SM UP BR OVC022 00/M01 A2963 RMK AO2 UPB52 SLP043 P0000 T00001006 FZRANO $
PAJZ 141456Z AUTO 00000KT 8SM FEW003 OVC020 00/M01 A2964 RMK AO2 SLP046 T00001006 56005 FZRANO $
PAJZ 141426Z AUTO 00000KT 2SM BR FEW003 OVC018 M01/M01 A2965 RMK AO2 FZRANO $
PAJZ 141422Z AUTO 00000KT 1 3/4SM BR OVC018 M01/M01 A2965 RMK AO2 FZRANO $
PAJZ 141356Z AUTO 07004KT 7SM BKN016 OVC040 M01/M01 A2965 RMK AO2 SLP047 T10061006 FZRANO $
PAJZ 141317Z AUTO 00000KT 7SM SCT002 BKN012 OVC080 M01/M01 A2966 RMK AO2 FZRANO $
PAJZ 141256Z AUTO 00000KT 3SM BR BKN002 OVC010 M01/M01 A2966 RMK AO2 SLP050 T10061006 FZRANO $
PAJZ 141206Z AUTO 14006KT 6SM BR SCT006 OVC010 00/M01 A2966 RMK AO2 FZRANO $
PAJZ 141156Z AUTO 12005KT 3SM BR BKN006 OVC010 M01/M01 A2966 RMK AO2 CIG 003V008 SLP051 70028 T10061006 10011 21006 58004 FZRANO $
PAJZ 141140Z AUTO 00000KT 6SM BR BKN004 OVC075 M01/M01 A2966 RMK AO2 CIG 003V008 FZRANO $
PAJZ 141131Z AUTO 00000KT 4SM BR SCT004 OVC075 M01/M01 A2966 RMK AO2 FZRANO $
PAJZ 141056Z AUTO 15007KT 8SM OVC075 M01/M01 A2966 RMK AO2 SLP052 T10061006 FZRANO $
PAJZ 141014Z AUTO 15008KT 8SM FEW014 SCT047 OVC075 M01/M01 A2967 RMK AO2 FZRANO $
PAJZ 140956Z AUTO 15005KT 8SM FEW003 BKN014 OVC047 M01/M01 A2967 RMK AO2 SLP055 T10061006 FZRANO $
PAJZ 140922Z AUTO 14005KT 7SM BKN003 OVC047 00/M01 A2967 RMK AO2 FZRANO $
PAJZ 140909Z AUTO 15006KT 8SM SCT003 BKN030 OVC047 00/00 A2967 RMK AO2 FZRANO $
PAJZ 140856Z AUTO 17006KT 8SM SCT030 OVC045 00/00 A2966 RMK AO2 SLP053 T00000000 51009 FZRANO $
PAJZ 140830Z AUTO 17008KT 6SM BR FEW002 OVC043 00/00 A2966 RMK AO2 FZRANO $
PAJZ 140756Z AUTO 16007KT 8SM FEW021 OVC043 00/00 A2966 RMK AO2 SLP051 T00000000 400440000 FZRANO $
PAJZ 140656Z AUTO 16009KT 8SM OVC043 01/00 A2966 RMK AO2 SLP050 T00060000 FZRANO $
PAJZ 140556Z AUTO 17010KT 5SM BR FEW005 SCT017 OVC047 01/01 A2964 RMK AO2 SLP043 60000 T00110006 10011 20000 51020 FZRANO $
PAJZ 140542Z AUTO 17009KT 2 1/2SM BR SCT003 BKN015 OVC020 01/01 A2964 RMK AO2 FZRANO $
PAJZ 140534Z AUTO 16010KT 2 1/2SM BR BKN003 BKN017 OVC048 01/01 A2963 RMK AO2 FZRANO $
PAJZ 140514Z AUTO 16010KT 1 1/4SM BR BKN003 BKN008 OVC043 01/01 A2963 RMK AO2 FZRANO $
PAJZ 140509Z AUTO 16011KT 1SM BR SCT003 BKN008 OVC043 01/01 A2963 RMK AO2 CIG 006V011 FZRANO $
PAJZ 140501Z AUTO 16010KT 1 3/4SM BR FEW003 SCT008 OVC043 01/01 A2962 RMK AO2 FZRANO $
PAJZ 140456Z AUTO 16010KT 3SM BR FEW003 SCT008 OVC043 01/01 A2962 RMK AO2 SLP038 T00110006 FZRANO $
PAJZ 140438Z AUTO 17009KT 3SM BR SCT003 OVC045 01/01 A2961 RMK AO2 FZRANO $
PAJZ 140436Z AUTO 17010KT 2 1/2SM BR BKN003 OVC045 01/01 A2961 RMK AO2 FZRANO $
PAJZ 140356Z AUTO 17010KT 1 1/2SM BR OVC003 01/01 A2960 RMK AO2 SLP030 T00110006 FZRANO $
PAJZ 140323Z AUTO 17010KT 1 1/4SM BR BKN003 OVC044 01/01 A2959 RMK AO2 FZRANO $
PAJZ 140316Z AUTO 17011KT 1 3/4SM BR SCT003 OVC044 01/01 A2959 RMK AO2 FZRANO $
PAJZ 140256Z AUTO 17011KT 5SM BR SCT003 OVC042 01/00 A2958 RMK AO2 SLP023 60000 T00060000 53028 FZRANO $
PAJZ 140209Z AUTO 19011KT 7SM OVC003 00/00 A2955 RMK AO2 FZRANO $
PAJZ 140201Z AUTO 18009KT 2SM BR OVC003 00/M01 A2955 RMK AO2 FZRANO $
PAJZ 140156Z AUTO 18008KT 1SM BR OVC003 00/M01 A2955 RMK AO2 SLP012 T00001006 FZRANO $
PAJZ 140134Z AUTO 18009KT 3/4SM BR OVC003 01/00 A2954 RMK AO2 FZRANO $
PAJZ 140124Z AUTO 18010KT 1SM BR OVC003 01/00 A2953 RMK AO2 FZRANO $
PAJZ 140121Z AUTO 18012KT 1 3/4SM BR OVC005 01/00 A2953 RMK AO2 FZRANO $
PAJZ 140056Z AUTO 18011KT 7SM BKN005 OVC037 01/01 A2952 RMK AO2 RAE28UPB07E10 SLP003 P0000 T00060006 FZRANO $
PAJZ 140028Z AUTO 19011KT 8SM BKN005 BKN020 OVC026 01/01 A2951 RMK AO2 RAE28UPB07E10 CIG 005V011 P0000 FZRANO $
PAJZ 140022Z AUTO 19010KT 8SM -RA SCT008 BKN017 OVC025 01/00 A2951 RMK AO2 UPB07E10 P0000 FZRANO $
PAJZ 140008Z AUTO 18008KT 5SM UP BR FEW010 BKN019 OVC029 01/00 A2950 RMK AO2 RAE07UPB07 P0000 FZRANO $
PAJZ 132356Z AUTO 18007KT 6SM -RA BR BKN013 BKN019 OVC026 01/00 A2949 RMK AO2 RAE2257B40UPB2257E33 SLP994 P0000 60008 T00060000 10017 20006 53030 FZRANO $
PAJZ 132341Z AUTO 19008KT 7SM -RA BKN013 BKN029 OVC048 01/01 A2948 RMK AO2 RAE2257B40UPB2257E33 P0000 FZRANO $
PAJZ 132331Z AUTO 20008KT 8SM UP SCT015 BKN027 OVC048 01/01 A2948 RMK AO2 RAE2257UPB2257 CIG 022V037 P0000 FZRANO $
PAJZ 132322Z AUTO 21008KT 8SM UP SCT006 SCT015 OVC047 01/01 A2947 RMK AO2 RAE2257UPB2257 P0000 FZRANO $
PAJZ 132305Z AUTO 22008KT 3SM UP BR SCT003 BKN007 OVC045 01/00 A2947 RMK AO2 RAE2257UPB2257 CIG 005V010 P0000 FZRANO $
PAJZ 132301Z AUTO 21008KT 1 1/4SM UP BR OVC003 01/00 A2946 RMK AO2 RAE2257UPB2257 CIG 001V009 P0000 FZRANO $
PAJZ 132256Z AUTO 21006KT 3/4SM -RA BR OVC003 01/00 A2946 RMK AO2 RAE05B45UPB43E45 SLP983 P0000 T00060000 FZRANO $
PAJZ 132235Z AUTO 22005KT 3/4SM BR BKN003 OVC007 01/00 A2945 RMK AO2 RAE05 P0000 FZRANO $
PAJZ 132224Z AUTO 23006KT 1SM BR BKN003 OVC010 01/00 A2945 RMK AO2 RAE05 P0000 FZRANO $
PAJZ 132218Z AUTO 23004KT 3/4SM BR BKN005 OVC012 01/00 A2944 RMK AO2 RAE05 CIG 003V008 P0000 FZRANO $
PAJZ 132215Z AUTO 23005KT 1/2SM FG BKN007 OVC012 01/00 A2944 RMK AO2 RAE05 CIG 004V009 P0000 FZRANO $
PAJZ 132211Z AUTO 22005KT 3/4SM BR FEW005 BKN010 OVC018 01/00 A2944 RMK AO2 RAE05 P0000 FZRANO $
PAJZ 132205Z AUTO 21005KT 1 1/4SM BR FEW004 BKN010 OVC018 01/00 A2944 RMK AO2 RAE05 CIG 008V011 P0000 FZRANO $
PAJZ 132156Z AUTO 22005KT 1SM -RA BR SCT004 BKN012 OVC018 01/00 A2943 RMK AO2 RAE09B41UPB23E41SNB09E23 SLP973 P0000 T00060000 FZRANO $
PAJZ 132150Z AUTO 22005KT 3/4SM -RA BR SCT004 BKN014 OVC018 01/00 A2943 RMK AO2 RAE09B41UPB23E41SNB09E23 P0000 FZRANO $
PAJZ 132136Z AUTO 23004KT 1/2SM UP FG OVC004 01/00 A2942 RMK AO2 RAE09UPB23SNB09E23 CIG 003V006 P0000 FZRANO $
PAJZ 132124Z AUTO 23004KT 3/4SM UP BR OVC004 01/00 A2941 RMK AO2 RAE09UPB23SNB09E23 CIG 003V006 P0000 FZRANO $
PAJZ 132115Z AUTO 23003KT 1SM -SN BR OVC004 01/00 A2941 RMK AO2 VIS 3/4V2 1/2 RAE09SNB09 CIG 003V006 P0000 FZRANO $
PAJZ 132109Z AUTO 23003KT 2 1/2SM -SN BR OVC004 01/00 A2941 RMK AO2 VIS 1 1/2V4 RAE09SNB09 CIG 003V006 P0000 FZRANO $
PAJZ 132056Z AUTO 23003KT 5SM -RA BR OVC002 01/00 A2940 RMK AO2 UPB1958E05RAB05SNE1958 SLP963 P0001 60008 T00060000 53012 FZRANO $
PAJZ 132025Z AUTO 00000KT 7SM -RA BKN002 BKN007 OVC011 01/00 A2939 RMK AO2 UPB1958E05RAB05SNE1958 P0001 FZRANO $